Aérodrome :
LOGIN :

S'inscrire | Disclaimer

   EN    FR    IT 

 










Légende :    VFR   VFR Marginal   IFR   IFR Intensif   IFR Très Intensif
Visi : 
Plafond : 
>= 8 km
>= 3000ft
5 à 8 km
1000 à 3000 ft
1500m à 5 km
500 à 1000 ft
800 à 1500m
200 à 500 ft
< 800m
< 200 ft
Symboles :   Orages  Brouillard  Fortes neiges  Fortes précipitations  Vent > 20 kt
SIGMETs :   Divers  Orages  Givrage  Turbulence  Onde Orograph.  Cendres Volcan.







- Altitude de l'aérodrome : 197 ft
- Code IATA : XOG
- Voir les cartes d'approche


LFMO - Orange

DERNIER METAR :
  • 190430Z AUTO 34017KT 320V020 CAVOK 06/M00 Q1019 BECMG 35030G40KT

METARs EXPIRÉS :
  • 190400Z AUTO 34018KT CAVOK 06/M00 Q1019 BECMG 35030G40KT
  • 190330Z AUTO 34019KT CAVOK 06/M00 Q1019 BECMG 35030G40KT
  • 190300Z AUTO 35014G24KT 320V020 CAVOK 06/M00 Q1019 BECMG 35030G40KT
  • 190230Z AUTO 35017G28KT CAVOK 06/M00 Q1019 BECMG 35030G40KT
  • 190200Z AUTO 35019G30KT CAVOK 06/M00 Q1020 TEMPO 35030G40KT

TAF TAF LFMO
Valide du 19 à 03h jusqu'au 20 à 03h UTC


190200Z 1903/2003 35030G40KT CAVOK
TEMPO 1908/2003 35035G50KT
Pas de NOTAMs connus pour ce terrain.



MET'MAP, la Météo Aéronautique d'un coup d'oeil ! - Copyright ORBIFLY Décembre 2007 - Disclaimer

ORBIFLY MET'MAP TEAM :

Programmation & Développement : Alexandra Zaïnal
Conception & Développement : Baudouin d'Aumeries
Co-Programmation & Développement : Marc-Olivier Méhu
Soutien technique & logistique : Manuel Goepfert

Contact : metmap@orbifly.com




SOURCES & CREDITS :

   NOAA